Alma Lake, Indiana
Current Conditions -  °F | °C
As of 8:53 PM on Saturday 22 Nov 2014 (Local Time) from KHUF Reporting Station
Overcast Overcast  
Wind Chill: 56°   Ceiling: 5500
Heat Index: 56°   Visibility: 10mi
Dew Point: 41°   Wind: 12mph
Humidity: 57%   Direction: 180°S
Pressure: 29.99"   Gusts: NA
Location:  39.5158°N, 87.1262°W
Report Text: KHUF 230153Z 18010KT 10SM FEW047 BKN055 OVC095 13/05 A2999 RMK AO2 SLP157 T01330050
Loading
Personal Weather Stations






























Interactive Weather Map New forecast layout! Learn more

10-Day Weather Forecast

Advertisements
Track Severe Weather on mobile